Time;durP1;ratioP1;P1;durP2;ratioP2;P2;SDS_P1;SDS_P2;PMS_P1;PMS_P2;Temp;Humidity;BMP_temperature;BMP_pressure;BME280_temperature;BME280_humidity;BME280_pressure;Samples;Min_cycle;Max_cycle;Signal;HPM_P1;HPM_P2
2023/08/06 14:03:29;;;;;;;16.52;15.52;;;;;;;19.39;68.90;98634.19;5030030;27;96501;-83
2023/08/06 14:05:56;;;;;;;16.92;15.82;;;;;;;19.34;69.31;98639.97;5010604;28;97216;-80
2023/08/06 14:08:23;;;;;;;17.23;16.23;;;;;;;19.30;69.27;98638.59;5006686;28;97509;-80
2023/08/06 14:10:50;;;;;;;17.83;16.75;;;;;;;19.13;69.89;98629.56;5009250;28;98907;-80
2023/08/06 14:13:16;;;;;;;17.55;16.35;;;;;;;19.09;69.92;98636.19;5010865;28;96881;-81
2023/08/06 14:15:46;;;;;;;16.70;15.70;;;;;;;19.13;70.02;98631.41;5006318;28;97202;-80
2023/08/06 14:18:14;;;;;;;16.70;15.70;;;;;;;19.18;69.88;98627.31;4977197;28;100161;-81
2023/08/06 14:20:41;;;;;;;18.10;16.88;;;;;;;19.15;69.99;98629.44;5003107;28;97930;-83
2023/08/06 14:23:07;;;;;;;18.45;17.25;;;;;;;19.07;70.39;98634.66;5013238;28;96759;-86
2023/08/06 14:25:33;;;;;;;17.65;16.63;;;;;;;19.16;69.76;98649.72;5003073;28;97997;-86
2023/08/06 14:27:59;;;;;;;17.98;16.88;;;;;;;19.20;69.95;98643.97;4998195;28;97629;-83
2023/08/06 14:30:24;;;;;;;17.15;16.15;;;;;;;19.25;69.71;98650.66;5012718;28;98324;-82
2023/08/06 14:32:50;;;;;;;18.35;16.98;;;;;;;19.24;70.02;98641.84;5011433;28;96614;-87
2023/08/06 14:35:16;;;;;;;19.75;18.20;;;;;;;19.17;70.10;98643.44;5010711;28;97081;-83
2023/08/06 14:37:41;;;;;;;18.77;17.58;;;;;;;19.29;69.98;98652.88;5011791;28;98878;-85
2023/08/06 14:40:08;;;;;;;18.75;17.55;;;;;;;19.27;70.06;98651.34;5001535;28;98245;-77
2023/08/06 14:42:33;;;;;;;18.83;17.63;;;;;;;19.23;70.19;98656.97;5009289;28;96671;-82
2023/08/06 14:44:59;;;;;;;17.73;16.63;;;;;;;19.36;69.86;98650.47;5010124;28;96914;-80
2023/08/06 14:47:24;;;;;;;17.98;16.88;;;;;;;19.41;69.31;98658.84;5003066;28;98602;-81
2023/08/06 14:49:50;;;;;;;18.20;16.77;;;;;;;19.40;69.29;98660.66;5004909;28;98308;-83
2023/08/06 14:52:16;;;;;;;16.38;15.38;;;;;;;19.56;68.88;98662.66;5005993;28;96741;-83
2023/08/06 14:54:42;;;;;;;17.17;16.17;;;;;;;19.53;68.87;98667.47;4994978;28;96974;-80
2023/08/06 14:57:08;;;;;;;18.33;17.13;;;;;;;19.32;69.17;98663.22;4981643;28;98839;-85
2023/08/06 14:59:33;;;;;;;19.20;17.73;;;;;;;19.32;69.35;98659.75;4988345;28;98263;-84
2023/08/06 15:01:59;;;;;;;18.67;17.48;;;;;;;19.19;70.00;98674.19;4990502;28;97000;-80
2023/08/06 15:04:24;;;;;;;18.33;17.23;;;;;;;19.22;69.30;98665.91;5011411;28;96957;-81
2023/08/06 15:06:54;;;;;;;18.52;17.42;;;;;;;19.17;69.57;98665.53;5003700;28;99369;-75
2023/08/06 15:09:21;;;;;;;18.40;17.23;;;;;;;19.17;69.78;98662.06;5007796;28;98420;-77
2023/08/06 15:11:47;;;;;;;17.95;16.85;;;;;;;19.26;69.57;98674.47;5004969;28;97226;-83
2023/08/06 15:14:14;;;;;;;17.83;16.73;;;;;;;19.20;69.91;98667.91;4994232;28;97229;-82
2023/08/06 15:16:39;;;;;;;17.70;16.60;;;;;;;19.17;69.70;98670.88;4977504;28;99243;-82
2023/08/06 15:19:05;;;;;;;17.10;16.10;;;;;;;19.18;69.75;98679.69;4989797;28;98887;-81
2023/08/06 15:21:31;;;;;;;16.67;15.68;;;;;;;19.05;70.16;98677.31;4996920;28;97828;-78
2023/08/06 15:23:56;;;;;;;17.42;16.42;;;;;;;18.98;70.41;98694.84;4994890;28;97014;-77
2023/08/06 15:26:22;;;;;;;16.35;15.35;;;;;;;18.81;70.75;98700.94;4994117;28;98767;-77
2023/08/06 15:28:47;;;;;;;17.02;16.02;;;;;;;18.77;70.98;98701.22;4995694;28;98554;-77
2023/08/06 15:31:13;;;;;;;17.00;16.00;;;;;;;18.75;71.07;98703.16;4998068;28;96592;-77
2023/08/06 15:33:38;;;;;;;16.65;15.65;;;;;;;18.76;71.14;98696.88;4977184;28;97125;-78
2023/08/06 15:36:04;;;;;;;17.30;16.10;;;;;;;18.62;71.22;98702.63;4994547;28;98540;-78
2023/08/06 15:38:29;;;;;;;17.13;16.02;;;;;;;18.56;71.27;98703.19;4994647;28;99637;-78
2023/08/06 15:40:56;;;;;;;17.75;16.55;;;;;;;18.61;71.28;98698.25;4991624;28;97249;-77
2023/08/06 15:43:21;;;;;;;17.40;16.13;;;;;;;18.62;71.37;98712.41;4996438;28;96956;-77
2023/08/06 15:45:47;;;;;;;17.73;16.48;;;;;;;18.55;71.18;98706.81;4987379;28;98563;-79
2023/08/06 15:48:12;;;;;;;18.05;16.85;;;;;;;18.54;71.24;98708.63;4996767;28;98317;-79
2023/08/06 15:50:38;;;;;;;17.48;16.38;;;;;;;18.58;71.33;98714.50;4989608;28;97050;-79
2023/08/06 15:53:04;;;;;;;17.25;16.25;;;;;;;18.62;71.24;98720.38;4995319;28;97086;-79
2023/08/06 15:55:30;;;;;;;18.77;17.25;;;;;;;18.49;71.18;98718.84;4996298;28;98631;-79
2023/08/06 15:57:55;;;;;;;18.27;17.17;;;;;;;18.55;71.17;98720.94;4996330;28;98508;-79
2023/08/06 16:00:21;;;;;;;17.77;16.67;;;;;;;18.58;71.01;98718.97;4995627;28;97120;-77
2023/08/06 16:02:46;;;;;;;18.75;17.55;;;;;;;18.53;71.21;98714.94;4995070;28;97075;-76
2023/08/06 16:05:12;;;;;;;17.85;16.60;;;;;;;18.42;71.32;98712.44;4994312;28;98913;-82
2023/08/06 16:07:38;;;;;;;18.50;17.20;;;;;;;18.49;71.14;98712.69;4993042;28;98454;-83
2023/08/06 16:10:04;;;;;;;18.90;17.70;;;;;;;18.33;71.34;98711.44;4993068;28;98065;-82
2023/08/06 16:12:29;;;;;;;18.67;17.48;;;;;;;18.23;71.73;98707.13;4995379;28;96998;-82
2023/08/06 16:14:55;;;;;;;17.15;16.15;;;;;;;18.31;71.69;98709.91;4993375;28;98571;-82
2023/08/06 16:17:20;;;;;;;17.83;16.73;;;;;;;18.28;71.41;98703.06;4995785;28;98894;-87
2023/08/06 16:19:46;;;;;;;19.27;18.02;;;;;;;18.41;71.21;98715.22;4995015;28;96776;-82
2023/08/06 16:22:12;;;;;;;18.58;17.38;;;;;;;18.40;71.13;98724.16;4997975;28;96887;-84
2023/08/06 16:24:37;;;;;;;18.58;17.38;;;;;;;18.39;71.16;98720.69;4990530;28;98856;-82
2023/08/06 16:27:03;;;;;;;17.95;16.75;;;;;;;18.39;71.00;98733.13;4998763;28;98654;-84
2023/08/06 16:29:29;;;;;;;18.17;16.88;;;;;;;18.29;71.43;98735.75;4987490;28;97202;-82
2023/08/06 16:31:55;;;;;;;19.15;17.95;;;;;;;18.10;71.75;98740.09;4988333;28;97431;-83
2023/08/06 16:34:21;;;;;;;18.90;17.70;;;;;;;18.17;71.37;98748.34;4994667;28;98761;-82
2023/08/06 16:36:46;;;;;;;18.13;17.02;;;;;;;18.13;71.59;98749.59;4988370;28;98918;-82
2023/08/06 16:39:12;;;;;;;17.98;16.77;;;;;;;17.90;71.80;98758.78;4994816;28;96924;-82
2023/08/06 16:41:37;;;;;;;18.27;16.98;;;;;;;17.86;72.28;98752.94;4992303;28;97176;-82
2023/08/06 16:44:05;;;;;;;19.02;17.83;;;;;;;17.85;72.46;98751.22;4991638;28;98771;-85
2023/08/06 16:46:31;;;;;;;18.27;16.98;;;;;;;17.86;72.26;98759.06;4977013;28;98594;-84
2023/08/06 16:48:56;;;;;;;17.98;16.88;;;;;;;17.94;72.28;98768.16;4986357;28;97232;-84
2023/08/06 16:51:22;;;;;;;18.67;17.05;;;;;;;17.99;72.30;98766.75;4985547;28;96876;-82
2023/08/06 16:53:47;;;;;;;17.67;16.58;;;;;;;18.00;72.00;98763.13;4984096;28;100662;-83
2023/08/06 16:56:13;;;;;;;18.23;17.00;;;;;;;17.99;71.97;98761.47;4992912;28;98497;-80
2023/08/06 16:58:39;;;;;;;17.90;16.70;;;;;;;17.93;72.07;98753.22;4988650;28;97471;-77
2023/08/06 17:01:05;;;;;;;17.45;16.45;;;;;;;17.98;72.15;98759.78;4973755;28;97034;-77
2023/08/06 17:03:32;;;;;;;18.67;17.27;;;;;;;17.93;71.94;98756.69;4990477;28;98851;-78
2023/08/06 17:05:59;;;;;;;17.63;16.33;;;;;;;17.92;71.87;98767.44;4984214;28;98671;-77
2023/08/06 17:08:24;;;;;;;17.98;16.88;;;;;;;17.90;71.83;98769.41;4990798;28;97291;-77
2023/08/06 17:10:50;;;;;;;18.40;17.20;;;;;;;17.89;71.96;98773.88;4988883;28;97778;-77
2023/08/06 17:13:17;;;;;;;18.20;17.13;;;;;;;17.82;72.42;98783.34;4987264;28;98935;-77
2023/08/06 17:15:42;;;;;;;18.02;16.75;;;;;;;17.80;72.43;98786.16;4986951;28;98777;-77
2023/08/06 17:18:09;;;;;;;19.33;18.23;;;;;;;17.83;72.46;98798.28;4988956;28;97259;-78
2023/08/06 17:20:35;;;;;;;19.15;17.95;;;;;;;17.81;72.21;98806.41;4989795;28;98781;-75
2023/08/06 17:23:03;;;;;;;20.08;18.77;;;;;;;17.70;72.53;98811.78;4992768;28;99166;-77
2023/08/06 17:25:29;;;;;;;18.63;17.50;;;;;;;17.76;72.39;98805.09;4990884;28;98873;-77
2023/08/06 17:27:55;;;;;;;17.65;16.55;;;;;;;17.76;72.54;98813.06;4992553;28;97095;-77
2023/08/06 17:30:20;;;;;;;19.52;18.33;;;;;;;17.73;72.03;98808.84;4994790;28;97179;-77
2023/08/06 17:32:46;;;;;;;20.10;18.73;;;;;;;17.74;72.21;98820.28;4989066;28;99012;-78
2023/08/06 17:35:12;;;;;;;18.98;17.83;;;;;;;17.74;72.20;98812.34;4988935;28;98850;-77
2023/08/06 17:37:37;;;;;;;19.08;17.55;;;;;;;17.77;72.06;98807.63;4989642;28;97223;-77
2023/08/06 17:40:03;;;;;;;20.00;18.80;;;;;;;17.75;72.32;98806.91;4993140;28;97281;-77
2023/08/06 17:42:29;;;;;;;20.73;19.50;;;;;;;17.76;72.33;98800.63;4992263;28;98793;-77
2023/08/06 17:44:54;;;;;;;19.90;18.50;;;;;;;17.73;72.30;98797.41;4989818;28;98376;-77
2023/08/06 17:47:20;;;;;;;19.52;18.33;;;;;;;17.79;71.87;98804.84;4993773;28;96890;-76
2023/08/06 17:49:45;;;;;;;19.30;18.05;;;;;;;17.72;71.92;98790.41;4988412;28;97007;-77
2023/08/06 17:52:11;;;;;;;18.67;17.48;;;;;;;17.65;72.22;98782.13;4992907;28;98791;-77
2023/08/06 17:54:36;;;;;;;19.65;18.42;;;;;;;17.67;71.69;98789.97;4993407;28;98522;-76
2023/08/06 17:57:02;;;;;;;18.55;17.45;;;;;;;17.68;71.82;98792.47;4990698;28;97056;-76
2023/08/06 17:59:27;;;;;;;20.05;18.65;;;;;;;17.61;71.61;98799.31;4994459;28;97099;-76
2023/08/06 18:01:53;;;;;;;19.67;18.35;;;;;;;17.64;72.03;98807.00;4993427;28;98879;-75
2023/08/06 18:04:19;;;;;;;18.90;17.67;;;;;;;17.62;71.93;98807.13;4990022;28;98498;-78
2023/08/06 18:06:44;;;;;;;19.15;18.05;;;;;;;17.59;71.97;98806.56;4979770;28;97154;-78
2023/08/06 18:09:11;;;;;;;18.63;17.42;;;;;;;17.61;72.04;98812.56;4991407;28;97375;-79
2023/08/06 18:11:36;;;;;;;18.70;17.58;;;;;;;17.60;71.80;98808.25;4985540;28;98983;-79
2023/08/06 18:14:02;;;;;;;18.25;17.05;;;;;;;17.60;71.82;98808.25;4982548;28;98807;-79
2023/08/06 18:16:28;;;;;;;17.92;16.73;;;;;;;17.60;71.73;98816.22;4989379;28;97155;-80
2023/08/06 18:18:54;;;;;;;19.20;18.00;;;;;;;17.50;71.63;98805.53;4992486;28;97224;-78
2023/08/06 18:21:20;;;;;;;19.70;18.40;;;;;;;17.46;71.96;98816.56;4989527;28;99044;-80
2023/08/06 18:23:47;;;;;;;19.30;17.83;;;;;;;17.47;72.23;98818.25;4991601;28;98987;-80
2023/08/06 18:26:12;;;;;;;19.35;17.80;;;;;;;17.41;72.03;98824.91;4991337;28;97176;-80
2023/08/06 18:28:41;;;;;;;19.70;18.50;;;;;;;17.41;72.30;98823.09;4991516;28;96926;-80
2023/08/06 18:31:06;;;;;;;27.42;25.23;;;;;;;17.46;71.90;98827.19;4990260;28;98879;-78
2023/08/06 18:33:32;;;;;;;21.95;20.35;;;;;;;17.44;72.25;98832.59;4986519;28;98892;-78
2023/08/06 18:35:57;;;;;;;18.90;17.70;;;;;;;17.45;72.06;98834.25;4974980;28;97025;-78
2023/08/06 18:38:26;;;;;;;19.88;18.63;;;;;;;17.38;72.40;98830.47;4990381;28;97140;-81
2023/08/06 18:41:01;;;;;;;19.85;18.45;;;;;;;17.36;72.47;98830.59;4972865;28;98964;-82
2023/08/06 18:43:30;;;;;;;19.90;18.60;;;;;;;17.44;72.36;98829.94;4986150;28;97595;-81
2023/08/06 18:45:56;;;;;;;19.15;17.75;;;;;;;17.41;72.37;98835.50;4967850;28;97308;-79
2023/08/06 18:48:23;;;;;;;19.48;18.17;;;;;;;17.42;72.66;98843.34;4984759;28;96877;-80
2023/08/06 18:50:49;;;;;;;18.98;17.77;;;;;;;17.40;72.38;98842.63;4993241;28;100083;-81
2023/08/06 18:53:14;;;;;;;18.15;17.05;;;;;;;17.42;72.60;98850.44;4993799;28;98844;-80
2023/08/06 18:55:50;;;;;;;19.33;18.10;;;;;;;17.44;72.33;98856.47;4972675;28;96957;-81
2023/08/06 18:58:16;;;;;;;18.45;17.25;;;;;;;17.39;72.56;98858.66;4987337;28;97205;-81
2023/08/06 19:00:42;;;;;;;19.30;17.90;;;;;;;17.41;72.55;98854.09;4987237;28;99258;-80
2023/08/06 19:03:11;;;;;;;18.75;17.55;;;;;;;17.45;72.39;98847.53;4993460;28;98523;-82
2023/08/06 19:05:38;;;;;;;19.20;17.95;;;;;;;17.41;72.71;98841.66;4989800;28;97189;-82
2023/08/06 19:08:04;;;;;;;20.02;18.45;;;;;;;17.40;72.75;98845.28;4989638;28;96758;-77
2023/08/06 19:10:30;;;;;;;19.52;18.33;;;;;;;17.36;72.65;98840.38;4987532;28;98853;-77
2023/08/06 19:12:58;;;;;;;19.83;18.63;;;;;;;17.38;72.56;98849.88;4982687;28;98405;-79
2023/08/06 19:15:23;;;;;;;19.90;18.60;;;;;;;17.34;72.63;98851.13;4993949;28;96991;-80
2023/08/06 19:17:49;;;;;;;18.63;17.33;;;;;;;17.33;72.60;98841.47;4993579;28;96681;-78
2023/08/06 19:20:15;;;;;;;19.58;18.23;;;;;;;17.35;72.94;98844.84;4981108;28;98808;-80
2023/08/06 19:22:40;;;;;;;19.20;18.00;;;;;;;17.32;73.09;98837.13;4995632;28;98230;-79
2023/08/06 19:25:06;;;;;;;19.48;18.05;;;;;;;17.34;73.01;98837.88;4992304;28;97292;-81
2023/08/06 19:27:32;;;;;;;19.75;18.25;;;;;;;17.20;73.51;98828.41;4974503;28;97230;-82
2023/08/06 19:29:57;;;;;;;20.08;18.50;;;;;;;17.29;73.18;98824.16;4990527;28;98762;-76
2023/08/06 19:32:23;;;;;;;20.75;18.75;;;;;;;17.29;73.15;98815.34;4991517;28;98427;-76
2023/08/06 19:34:48;;;;;;;20.13;18.80;;;;;;;17.29;73.49;98816.19;4992404;28;96937;-75
2023/08/06 19:37:14;;;;;;;19.23;18.02;;;;;;;17.32;72.99;98815.09;4996017;28;97276;-74
2023/08/06 19:39:39;;;;;;;20.48;19.08;;;;;;;17.25;73.22;98825.41;4994750;28;98910;-75
2023/08/06 19:42:05;;;;;;;19.88;18.48;;;;;;;17.26;73.48;98819.09;4995020;28;98885;-76
2023/08/06 19:44:31;;;;;;;20.00;18.70;;;;;;;17.28;73.07;98817.16;4995494;28;97200;-76
2023/08/06 19:46:56;;;;;;;19.20;17.80;;;;;;;17.26;73.50;98808.50;4995878;28;97267;-76
2023/08/06 19:49:22;;;;;;;19.63;18.17;;;;;;;17.23;73.24;98810.59;4994996;28;98781;-75
2023/08/06 19:51:47;;;;;;;20.30;18.65;;;;;;;17.18;73.42;98809.13;4989538;28;98485;-76
2023/08/06 19:54:13;;;;;;;19.17;18.00;;;;;;;17.23;73.31;98807.94;4988007;28;97550;-75
2023/08/06 19:56:39;;;;;;;20.63;19.13;;;;;;;17.20;73.40;98812.50;4995657;28;97184;-75
2023/08/06 19:59:04;;;;;;;21.27;19.40;;;;;;;17.22;73.10;98806.22;4992395;28;98647;-76
2023/08/06 20:01:30;;;;;;;19.85;18.38;;;;;;;17.20;73.51;98807.22;4994639;28;98534;-75
2023/08/06 20:03:56;;;;;;;31.65;28.55;;;;;;;17.22;73.32;98809.75;4995272;28;96760;-76
2023/08/06 20:06:26;;;;;;;32.03;29.27;;;;;;;17.20;73.39;98811.69;4995617;28;97176;-76
2023/08/06 20:08:56;;;;;;;20.20;18.90;;;;;;;17.16;73.18;98808.47;4988955;28;98702;-75
2023/08/06 20:11:22;;;;;;;19.90;18.55;;;;;;;17.14;73.22;98818.34;4986908;28;98557;-75
2023/08/06 20:13:48;;;;;;;20.25;18.95;;;;;;;17.18;72.92;98824.22;4991460;28;97121;-83
2023/08/06 20:16:13;;;;;;;19.52;18.23;;;;;;;17.18;72.88;98821.56;4992074;28;97054;-82
2023/08/06 20:18:39;;;;;;;19.70;17.98;;;;;;;17.19;73.17;98820.59;4992221;28;98762;-80
2023/08/06 20:21:05;;;;;;;19.38;18.02;;;;;;;17.11;72.94;98823.91;4990803;28;98327;-80
2023/08/06 20:23:31;;;;;;;19.65;18.20;;;;;;;17.15;73.11;98821.81;4985217;28;97137;-75
2023/08/06 20:25:56;;;;;;;19.08;17.83;;;;;;;17.19;73.01;98823.22;4989079;28;97352;-76
2023/08/06 20:28:22;;;;;;;20.27;18.85;;;;;;;17.11;73.01;98825.72;4990241;28;99077;-75
2023/08/06 20:30:48;;;;;;;20.85;19.35;;;;;;;17.10;73.24;98831.97;4989742;28;98191;-75
2023/08/06 20:33:13;;;;;;;20.30;18.58;;;;;;;17.11;72.91;98836.31;4988938;28;96969;-76
2023/08/06 20:35:40;;;;;;;21.63;19.95;;;;;;;17.15;72.69;98837.72;4990391;28;98033;-75
2023/08/06 20:38:06;;;;;;;20.75;19.30;;;;;;;17.10;72.77;98850.53;4995120;28;98800;-76
2023/08/06 20:40:32;;;;;;;19.10;17.70;;;;;;;17.09;72.76;98843.56;4995239;28;98319;-76
2023/08/06 20:42:58;;;;;;;18.83;17.42;;;;;;;17.10;73.13;98839.94;4990457;28;96680;-76
2023/08/06 20:45:23;;;;;;;22.85;20.80;;;;;;;17.04;73.33;98840.44;4988328;28;96897;-75
2023/08/06 20:47:49;;;;;;;20.27;18.25;;;;;;;17.07;73.34;98841.03;4991037;28;98691;-77
2023/08/06 20:50:15;;;;;;;19.52;18.13;;;;;;;17.08;73.08;98842.72;4992980;28;98847;-76
2023/08/06 20:52:40;;;;;;;20.38;18.67;;;;;;;17.11;72.99;98847.75;4988547;28;96777;-77
2023/08/06 20:55:06;;;;;;;19.83;18.33;;;;;;;17.13;72.74;98844.97;4983834;28;98692;-76
2023/08/06 20:57:31;;;;;;;20.08;18.58;;;;;;;17.14;72.77;98850.16;4989946;28;99084;-82
2023/08/06 21:00:12;;;;;;;19.45;18.08;;;;;;;17.10;72.81;98848.72;4986386;28;98635;-78
2023/08/06 21:02:41;;;;;;;19.67;18.08;;;;;;;17.11;72.88;98849.59;4989726;28;97299;-75
2023/08/06 21:05:06;;;;;;;19.35;18.15;;;;;;;17.13;72.63;98851.13;4991141;28;97123;-76
2023/08/06 21:07:32;;;;;;;19.55;18.27;;;;;;;17.06;72.70;98855.25;4990995;28;98676;-77
2023/08/06 21:09:57;;;;;;;19.27;18.00;;;;;;;17.07;72.65;98866.69;4991572;28;98752;-77
2023/08/06 21:12:23;;;;;;;20.25;18.35;;;;;;;17.05;72.91;98869.50;4989490;28;96789;-75
2023/08/06 21:14:48;;;;;;;19.65;18.25;;;;;;;17.10;72.47;98874.38;4993006;28;97358;-74
2023/08/06 21:17:14;;;;;;;19.50;18.20;;;;;;;17.11;72.41;98879.56;4992659;28;98944;-76
2023/08/06 21:19:39;;;;;;;20.33;18.67;;;;;;;17.09;72.58;98876.22;4987563;28;98839;-73
2023/08/06 21:22:06;;;;;;;19.55;17.98;;;;;;;17.11;72.39;98876.09;4992590;28;97064;-76
2023/08/06 21:24:32;;;;;;;19.95;18.50;;;;;;;17.05;72.69;98868.66;4991350;28;98571;-77
2023/08/06 21:26:57;;;;;;;20.10;18.80;;;;;;;17.08;72.20;98871.06;4986854;28;99093;-74
2023/08/06 21:29:23;;;;;;;19.67;17.92;;;;;;;17.04;72.37;98862.50;4986998;28;98498;-74
2023/08/06 21:31:48;;;;;;;19.75;18.33;;;;;;;17.10;72.81;98877.03;4992483;28;96736;-74
2023/08/06 21:34:15;;;;;;;19.38;17.88;;;;;;;17.09;72.58;98880.69;4989529;28;98247;-75
2023/08/06 21:36:41;;;;;;;19.73;18.30;;;;;;;17.08;72.59;98879.84;4988936;28;98655;-75
2023/08/06 21:39:06;;;;;;;20.45;18.85;;;;;;;17.06;72.75;98884.41;4993097;28;98415;-74
2023/08/06 21:41:32;;;;;;;20.20;18.55;;;;;;;17.07;72.54;98879.94;4994039;28;96996;-74
2023/08/06 21:43:57;;;;;;;19.75;18.35;;;;;;;17.06;72.53;98884.41;4991220;28;97159;-74
2023/08/06 21:46:24;;;;;;;19.08;17.45;;;;;;;17.05;72.42;98874.78;5002273;28;98746;-77
2023/08/06 21:48:50;;;;;;;20.10;18.65;;;;;;;17.02;72.42;98876.88;4984703;28;98281;-74
2023/08/06 21:51:20;;;;;;;18.65;17.45;;;;;;;16.99;72.92;98875.31;4994571;28;96706;-76
2023/08/06 21:53:46;;;;;;;19.45;18.10;;;;;;;16.85;72.77;98887.03;4984645;28;96798;-74
2023/08/06 21:56:13;;;;;;;19.65;18.23;;;;;;;16.95;72.63;98882.66;4987622;28;98945;-77
2023/08/06 21:58:42;;;;;;;19.45;18.10;;;;;;;16.96;72.65;98881.69;4990227;28;98091;-74
2023/08/06 22:01:10;;;;;;;18.67;17.48;;;;;;;16.98;72.67;98874.44;4994175;28;96946;-74
2023/08/06 22:03:36;;;;;;;19.98;18.48;;;;;;;16.98;72.59;98870.97;4990340;28;97721;-74
2023/08/06 22:06:02;;;;;;;20.33;18.73;;;;;;;16.94;72.68;98873.03;4990860;28;98731;-74
2023/08/06 22:08:28;;;;;;;19.73;18.30;;;;;;;16.94;72.38;98880.16;4992132;28;98704;-73
2023/08/06 22:10:55;;;;;;;19.35;18.15;;;;;;;16.94;72.46;98880.97;4987973;28;97178;-74
2023/08/06 22:13:21;;;;;;;20.15;18.35;;;;;;;16.93;72.42;98875.81;4994169;28;96902;-74
2023/08/06 22:15:46;;;;;;;19.88;18.33;;;;;;;16.88;72.92;98880.66;4993503;28;98777;-74
2023/08/06 22:18:12;;;;;;;18.70;17.40;;;;;;;16.89;72.58;98869.06;4990670;28;98568;-74
2023/08/06 22:20:37;;;;;;;19.92;18.52;;;;;;;16.86;72.86;98862.22;4983178;28;97619;-74
2023/08/06 22:23:03;;;;;;;20.08;18.58;;;;;;;16.88;72.90;98860.28;4989150;28;97117;-75
2023/08/06 22:25:29;;;;;;;19.42;18.10;;;;;;;16.91;72.99;98861.84;4993626;28;98705;-74
2023/08/06 22:27:55;;;;;;;19.67;17.98;;;;;;;16.92;72.64;98863.53;4994188;28;98497;-75
2023/08/06 22:30:20;;;;;;;19.58;18.17;;;;;;;16.88;72.72;98862.94;4987442;28;96810;-77
2023/08/06 22:32:46;;;;;;;19.40;18.10;;;;;;;16.88;72.45;98864.75;4995855;28;97251;-74
2023/08/06 22:35:15;;;;;;;19.02;17.63;;;;;;;16.88;72.65;98868.25;4993544;28;98729;-74
2023/08/06 22:37:44;;;;;;;18.83;17.42;;;;;;;16.90;72.41;98861.00;4994558;28;98273;-77
2023/08/06 22:40:10;;;;;;;19.33;17.73;;;;;;;16.89;72.51;98863.78;4992511;28;97380;-74
2023/08/06 22:42:38;;;;;;;18.90;17.60;;;;;;;16.90;72.44;98865.44;4996895;28;97940;-74
2023/08/06 22:45:07;;;;;;;19.08;17.50;;;;;;;16.84;72.38;98855.34;4978049;28;98577;-74
2023/08/06 22:47:33;;;;;;;20.55;18.73;;;;;;;16.81;72.27;98869.69;4984799;28;98330;-77
2023/08/06 22:49:59;;;;;;;19.50;18.00;;;;;;;16.73;72.87;98870.31;4993062;28;97226;-74
2023/08/06 22:52:24;;;;;;;19.23;17.92;;;;;;;16.74;72.40;98866.69;4984799;28;96823;-74
2023/08/06 22:54:50;;;;;;;19.65;18.33;;;;;;;16.79;72.43;98871.66;4979870;28;98859;-76
2023/08/06 22:57:15;;;;;;;19.13;17.83;;;;;;;16.75;73.05;98868.41;4985308;28;98381;-74
2023/08/06 22:59:41;;;;;;;19.27;18.08;;;;;;;16.78;72.54;98864.66;4997379;28;96772;-74
2023/08/06 23:02:07;;;;;;;19.30;17.90;;;;;;;16.79;72.43;98871.66;4991101;28;97957;-74
2023/08/06 23:04:32;;;;;;;19.75;18.33;;;;;;;16.78;72.22;98867.31;4986970;28;98572;-74
2023/08/06 23:06:58;;;;;;;19.67;18.38;;;;;;;16.72;72.54;98863.31;4995664;28;97797;-74
2023/08/06 23:09:26;;;;;;;19.73;18.33;;;;;;;16.71;72.25;98868.75;4996713;28;96963;-74
2023/08/06 23:11:54;;;;;;;20.00;18.52;;;;;;;16.69;72.29;98865.38;4997263;28;97043;-76
2023/08/06 23:14:20;;;;;;;20.63;18.95;;;;;;;16.70;72.28;98869.75;4996246;28;99314;-74
2023/08/06 23:16:46;;;;;;;19.45;18.25;;;;;;;16.69;72.62;98870.69;4996865;28;98283;-74
2023/08/06 23:19:12;;;;;;;20.23;18.48;;;;;;;16.69;72.51;98868.88;4995979;28;97660;-76
2023/08/06 23:21:38;;;;;;;19.88;18.38;;;;;;;16.63;72.83;98863.25;4996779;28;96996;-74
2023/08/06 23:24:04;;;;;;;19.50;18.05;;;;;;;16.64;72.35;98865.78;4995858;28;98862;-74
2023/08/06 23:26:30;;;;;;;19.52;18.13;;;;;;;16.61;72.46;98858.09;4996232;28;97352;-76
2023/08/06 23:28:56;;;;;;;18.63;17.42;;;;;;;16.60;72.11;98863.50;4990125;28;97152;-74
2023/08/06 23:31:22;;;;;;;19.48;18.08;;;;;;;16.57;71.99;98861.09;4996889;28;97984;-74
2023/08/06 23:33:48;;;;;;;19.10;17.60;;;;;;;16.57;72.24;98854.00;4995551;28;97806;-77
2023/08/06 23:36:13;;;;;;;19.77;18.48;;;;;;;16.58;72.12;98868.94;4989238;28;98780;-74
2023/08/06 23:38:39;;;;;;;21.00;19.45;;;;;;;16.54;72.05;98862.19;4996460;28;97345;-76
2023/08/06 23:41:04;;;;;;;19.95;18.48;;;;;;;16.57;71.81;98871.69;4996814;28;96713;-74
2023/08/06 23:43:30;;;;;;;19.17;17.88;;;;;;;16.59;71.79;98878.56;4995837;28;98646;-74
2023/08/06 23:45:57;;;;;;;19.17;17.85;;;;;;;16.61;72.02;98878.41;4990431;28;98443;-74
2023/08/06 23:48:23;;;;;;;21.20;19.42;;;;;;;16.61;71.74;98878.41;4990684;28;96575;-75
2023/08/06 23:50:49;;;;;;;20.60;19.05;;;;;;;16.63;71.77;98881.78;4996363;28;97031;-74
2023/08/06 23:53:14;;;;;;;19.13;17.92;;;;;;;16.62;71.37;98883.59;4995259;28;98518;-74
2023/08/06 23:55:40;;;;;;;19.52;18.15;;;;;;;16.64;71.29;98886.09;4995484;28;98340;-74
2023/08/06 23:58:05;;;;;;;19.58;18.17;;;;;;;16.63;71.20;98873.84;4996469;28;96634;-74
